sensor_id;sensor_type;location;lat;lon;timestamp;P1;durP1;ratioP1;P2;durP2;ratioP2
13660;SDS011;6903;49.480;11.102;2022-07-22T00:01:57;10.43;;;8.60;;
13660;SDS011;6903;49.480;11.102;2022-07-22T00:04:22;9.88;;;8.40;;
13660;SDS011;6903;49.480;11.102;2022-07-22T00:06:48;8.55;;;7.70;;
13660;SDS011;6903;49.480;11.102;2022-07-22T00:09:13;10.07;;;9.00;;
13660;SDS011;6903;49.480;11.102;2022-07-22T00:11:38;9.43;;;8.57;;
13660;SDS011;6903;49.480;11.102;2022-07-22T00:14:04;10.60;;;8.82;;
13660;SDS011;6903;49.480;11.102;2022-07-22T00:16:29;9.35;;;8.45;;
13660;SDS011;6903;49.480;11.102;2022-07-22T00:18:55;9.50;;;8.40;;
13660;SDS011;6903;49.480;11.102;2022-07-22T00:21:20;9.18;;;8.25;;
13660;SDS011;6903;49.480;11.102;2022-07-22T00:23:45;9.05;;;8.15;;
13660;SDS011;6903;49.480;11.102;2022-07-22T00:26:11;11.27;;;8.98;;
13660;SDS011;6903;49.480;11.102;2022-07-22T00:28:36;10.85;;;8.73;;
13660;SDS011;6903;49.480;11.102;2022-07-22T00:31:01;9.82;;;8.82;;
13660;SDS011;6903;49.480;11.102;2022-07-22T00:33:27;9.52;;;8.52;;
13660;SDS011;6903;49.480;11.102;2022-07-22T00:35:52;10.38;;;9.13;;
13660;SDS011;6903;49.480;11.102;2022-07-22T00:38:17;13.40;;;9.85;;
13660;SDS011;6903;49.480;11.102;2022-07-22T00:40:43;10.32;;;9.30;;
13660;SDS011;6903;49.480;11.102;2022-07-22T00:43:08;9.77;;;8.87;;
13660;SDS011;6903;49.480;11.102;2022-07-22T00:45:33;9.60;;;8.60;;
13660;SDS011;6903;49.480;11.102;2022-07-22T00:47:59;10.38;;;9.38;;
13660;SDS011;6903;49.480;11.102;2022-07-22T00:50:24;9.88;;;8.88;;
13660;SDS011;6903;49.480;11.102;2022-07-22T00:52:50;10.40;;;9.30;;
13660;SDS011;6903;49.480;11.102;2022-07-22T00:55:15;10.40;;;9.18;;
13660;SDS011;6903;49.480;11.102;2022-07-22T00:57:41;10.67;;;9.50;;
13660;SDS011;6903;49.480;11.102;2022-07-22T01:00:09;10.83;;;9.87;;
13660;SDS011;6903;49.480;11.102;2022-07-22T01:02:37;10.60;;;9.47;;
13660;SDS011;6903;49.480;11.102;2022-07-22T01:05:04;10.75;;;9.75;;
13660;SDS011;6903;49.480;11.102;2022-07-22T01:07:30;10.83;;;9.83;;
13660;SDS011;6903;49.480;11.102;2022-07-22T01:09:55;9.67;;;7.93;;
13660;SDS011;6903;49.480;11.102;2022-07-22T01:12:20;9.68;;;7.97;;
13660;SDS011;6903;49.480;11.102;2022-07-22T01:14:45;9.48;;;8.57;;
13660;SDS011;6903;49.480;11.102;2022-07-22T01:17:11;8.87;;;8.07;;
13660;SDS011;6903;49.480;11.102;2022-07-22T01:19:36;11.10;;;10.03;;
13660;SDS011;6903;49.480;11.102;2022-07-22T01:22:02;10.73;;;9.70;;
13660;SDS011;6903;49.480;11.102;2022-07-22T01:24:28;11.40;;;9.27;;
13660;SDS011;6903;49.480;11.102;2022-07-22T01:26:54;10.82;;;9.55;;
13660;SDS011;6903;49.480;11.102;2022-07-22T01:29:19;10.70;;;9.70;;
13660;SDS011;6903;49.480;11.102;2022-07-22T01:31:44;10.60;;;9.40;;
13660;SDS011;6903;49.480;11.102;2022-07-22T01:34:10;10.68;;;9.68;;
13660;SDS011;6903;49.480;11.102;2022-07-22T01:36:35;10.80;;;9.70;;
13660;SDS011;6903;49.480;11.102;2022-07-22T01:39:00;10.93;;;9.82;;
13660;SDS011;6903;49.480;11.102;2022-07-22T01:41:26;10.67;;;9.60;;
13660;SDS011;6903;49.480;11.102;2022-07-22T01:43:51;11.40;;;10.18;;
13660;SDS011;6903;49.480;11.102;2022-07-22T01:46:17;10.40;;;9.30;;
13660;SDS011;6903;49.480;11.102;2022-07-22T01:48:43;9.95;;;8.95;;
13660;SDS011;6903;49.480;11.102;2022-07-22T01:51:08;11.83;;;9.43;;
13660;SDS011;6903;49.480;11.102;2022-07-22T01:53:34;12.00;;;10.43;;
13660;SDS011;6903;49.480;11.102;2022-07-22T01:55:59;11.40;;;10.27;;
13660;SDS011;6903;49.480;11.102;2022-07-22T01:58:24;11.13;;;9.20;;
13660;SDS011;6903;49.480;11.102;2022-07-22T02:00:50;10.40;;;9.30;;
13660;SDS011;6903;49.480;11.102;2022-07-22T02:03:15;12.87;;;10.07;;
13660;SDS011;6903;49.480;11.102;2022-07-22T02:05:41;11.33;;;10.07;;
13660;SDS011;6903;49.480;11.102;2022-07-22T02:08:07;10.67;;;9.57;;
13660;SDS011;6903;49.480;11.102;2022-07-22T02:10:35;11.30;;;10.20;;
13660;SDS011;6903;49.480;11.102;2022-07-22T02:13:00;11.73;;;10.57;;
13660;SDS011;6903;49.480;11.102;2022-07-22T02:15:26;12.03;;;10.67;;
13660;SDS011;6903;49.480;11.102;2022-07-22T02:17:52;11.80;;;10.67;;
13660;SDS011;6903;49.480;11.102;2022-07-22T02:20:17;11.57;;;10.47;;
13660;SDS011;6903;49.480;11.102;2022-07-22T02:22:43;12.33;;;10.00;;
13660;SDS011;6903;49.480;11.102;2022-07-22T02:25:08;12.20;;;10.70;;
13660;SDS011;6903;49.480;11.102;2022-07-22T02:27:33;12.20;;;11.00;;
13660;SDS011;6903;49.480;11.102;2022-07-22T02:29:59;11.87;;;10.70;;
13660;SDS011;6903;49.480;11.102;2022-07-22T02:32:24;11.63;;;10.43;;
13660;SDS011;6903;49.480;11.102;2022-07-22T02:34:49;11.80;;;10.60;;
13660;SDS011;6903;49.480;11.102;2022-07-22T02:37:15;12.30;;;9.90;;
13660;SDS011;6903;49.480;11.102;2022-07-22T02:39:40;14.77;;;11.40;;
13660;SDS011;6903;49.480;11.102;2022-07-22T02:42:06;12.33;;;11.13;;
13660;SDS011;6903;49.480;11.102;2022-07-22T02:44:31;13.27;;;11.90;;
13660;SDS011;6903;49.480;11.102;2022-07-22T02:46:57;12.27;;;10.97;;
13660;SDS011;6903;49.480;11.102;2022-07-22T02:49:22;11.90;;;10.77;;
13660;SDS011;6903;49.480;11.102;2022-07-22T02:51:47;12.53;;;11.30;;
13660;SDS011;6903;49.480;11.102;2022-07-22T02:54:13;12.17;;;10.80;;
13660;SDS011;6903;49.480;11.102;2022-07-22T02:56:38;12.47;;;11.17;;
13660;SDS011;6903;49.480;11.102;2022-07-22T02:59:03;12.73;;;11.00;;
13660;SDS011;6903;49.480;11.102;2022-07-22T03:01:29;12.00;;;10.47;;
13660;SDS011;6903;49.480;11.102;2022-07-22T03:03:54;12.73;;;11.43;;
13660;SDS011;6903;49.480;11.102;2022-07-22T03:06:19;11.50;;;10.30;;
13660;SDS011;6903;49.480;11.102;2022-07-22T03:08:46;11.70;;;10.50;;
13660;SDS011;6903;49.480;11.102;2022-07-22T03:11:11;11.03;;;9.93;;
13660;SDS011;6903;49.480;11.102;2022-07-22T03:13:37;12.17;;;10.60;;
13660;SDS011;6903;49.480;11.102;2022-07-22T03:16:02;12.47;;;11.10;;
13660;SDS011;6903;49.480;11.102;2022-07-22T03:18:28;11.77;;;10.67;;
13660;SDS011;6903;49.480;11.102;2022-07-22T03:20:53;12.50;;;10.53;;
13660;SDS011;6903;49.480;11.102;2022-07-22T03:23:19;11.73;;;10.53;;
13660;SDS011;6903;49.480;11.102;2022-07-22T03:25:44;11.50;;;10.50;;
13660;SDS011;6903;49.480;11.102;2022-07-22T03:28:09;11.00;;;9.87;;
13660;SDS011;6903;49.480;11.102;2022-07-22T03:30:34;10.57;;;9.57;;
13660;SDS011;6903;49.480;11.102;2022-07-22T03:33:00;10.77;;;9.77;;
13660;SDS011;6903;49.480;11.102;2022-07-22T03:35:25;11.70;;;10.60;;
13660;SDS011;6903;49.480;11.102;2022-07-22T03:37:50;10.70;;;9.70;;
13660;SDS011;6903;49.480;11.102;2022-07-22T03:40:16;10.50;;;9.50;;
13660;SDS011;6903;49.480;11.102;2022-07-22T03:42:41;11.40;;;10.30;;
13660;SDS011;6903;49.480;11.102;2022-07-22T03:45:07;11.73;;;10.53;;
13660;SDS011;6903;49.480;11.102;2022-07-22T03:47:33;11.60;;;10.50;;
13660;SDS011;6903;49.480;11.102;2022-07-22T03:49:58;10.63;;;9.63;;
13660;SDS011;6903;49.480;11.102;2022-07-22T03:52:24;11.20;;;10.10;;
13660;SDS011;6903;49.480;11.102;2022-07-22T03:54:50;11.50;;;10.13;;
13660;SDS011;6903;49.480;11.102;2022-07-22T03:57:16;10.53;;;9.47;;
13660;SDS011;6903;49.480;11.102;2022-07-22T03:59:41;11.47;;;10.27;;
13660;SDS011;6903;49.480;11.102;2022-07-22T04:02:06;11.40;;;10.30;;
13660;SDS011;6903;49.480;11.102;2022-07-22T04:04:32;10.93;;;9.03;;
13660;SDS011;6903;49.480;11.102;2022-07-22T04:06:57;12.03;;;10.70;;
13660;SDS011;6903;49.480;11.102;2022-07-22T04:09:22;11.13;;;10.13;;
13660;SDS011;6903;49.480;11.102;2022-07-22T04:11:48;10.33;;;9.43;;
13660;SDS011;6903;49.480;11.102;2022-07-22T04:14:15;10.50;;;9.60;;
13660;SDS011;6903;49.480;11.102;2022-07-22T04:16:41;10.13;;;9.32;;
13660;SDS011;6903;49.480;11.102;2022-07-22T04:19:06;9.80;;;8.95;;
13660;SDS011;6903;49.480;11.102;2022-07-22T04:21:32;10.65;;;9.73;;
13660;SDS011;6903;49.480;11.102;2022-07-22T04:23:57;10.18;;;9.18;;
13660;SDS011;6903;49.480;11.102;2022-07-22T04:26:22;9.70;;;8.70;;
13660;SDS011;6903;49.480;11.102;2022-07-22T04:28:48;9.43;;;8.43;;
13660;SDS011;6903;49.480;11.102;2022-07-22T04:31:13;10.32;;;9.43;;
13660;SDS011;6903;49.480;11.102;2022-07-22T04:33:38;9.80;;;8.90;;
13660;SDS011;6903;49.480;11.102;2022-07-22T04:36:04;9.63;;;8.68;;
13660;SDS011;6903;49.480;11.102;2022-07-22T04:38:29;10.30;;;9.30;;
13660;SDS011;6903;49.480;11.102;2022-07-22T04:40:55;10.00;;;9.10;;
13660;SDS011;6903;49.480;11.102;2022-07-22T04:43:20;9.63;;;8.75;;
13660;SDS011;6903;49.480;11.102;2022-07-22T04:45:46;10.43;;;9.38;;
13660;SDS011;6903;49.480;11.102;2022-07-22T04:48:11;10.20;;;9.23;;
13660;SDS011;6903;49.480;11.102;2022-07-22T04:50:37;9.20;;;8.43;;
13660;SDS011;6903;49.480;11.102;2022-07-22T04:53:02;10.15;;;9.25;;
13660;SDS011;6903;49.480;11.102;2022-07-22T04:55:28;9.52;;;8.73;;
13660;SDS011;6903;49.480;11.102;2022-07-22T04:57:53;10.02;;;9.02;;
13660;SDS011;6903;49.480;11.102;2022-07-22T05:00:19;10.40;;;9.57;;
13660;SDS011;6903;49.480;11.102;2022-07-22T05:02:44;10.20;;;9.18;;
13660;SDS011;6903;49.480;11.102;2022-07-22T05:05:09;9.52;;;8.63;;
13660;SDS011;6903;49.480;11.102;2022-07-22T05:07:35;10.45;;;9.55;;
13660;SDS011;6903;49.480;11.102;2022-07-22T05:10:00;10.27;;;9.18;;
13660;SDS011;6903;49.480;11.102;2022-07-22T05:12:26;9.50;;;8.60;;
13660;SDS011;6903;49.480;11.102;2022-07-22T05:14:51;9.85;;;8.85;;
13660;SDS011;6903;49.480;11.102;2022-07-22T05:17:16;9.02;;;8.20;;
13660;SDS011;6903;49.480;11.102;2022-07-22T05:19:41;9.98;;;9.10;;
13660;SDS011;6903;49.480;11.102;2022-07-22T05:22:07;10.35;;;9.15;;
13660;SDS011;6903;49.480;11.102;2022-07-22T05:24:33;9.95;;;9.05;;
13660;SDS011;6903;49.480;11.102;2022-07-22T05:26:58;10.18;;;9.13;;
13660;SDS011;6903;49.480;11.102;2022-07-22T05:29:23;11.25;;;10.25;;
13660;SDS011;6903;49.480;11.102;2022-07-22T05:31:49;10.35;;;9.43;;
13660;SDS011;6903;49.480;11.102;2022-07-22T05:34:14;12.98;;;9.18;;
13660;SDS011;6903;49.480;11.102;2022-07-22T05:36:40;10.73;;;9.73;;
13660;SDS011;6903;49.480;11.102;2022-07-22T05:39:05;9.98;;;9.18;;
13660;SDS011;6903;49.480;11.102;2022-07-22T05:41:31;10.43;;;9.43;;
13660;SDS011;6903;49.480;11.102;2022-07-22T05:43:56;11.07;;;9.98;;
13660;SDS011;6903;49.480;11.102;2022-07-22T05:46:21;10.10;;;9.15;;
13660;SDS011;6903;49.480;11.102;2022-07-22T05:48:47;9.60;;;8.70;;
13660;SDS011;6903;49.480;11.102;2022-07-22T05:51:12;9.43;;;8.48;;
13660;SDS011;6903;49.480;11.102;2022-07-22T05:53:39;8.38;;;7.68;;
13660;SDS011;6903;49.480;11.102;2022-07-22T05:56:06;8.75;;;7.93;;
13660;SDS011;6903;49.480;11.102;2022-07-22T05:58:32;8.25;;;7.50;;
13660;SDS011;6903;49.480;11.102;2022-07-22T06:00:57;7.75;;;6.95;;
13660;SDS011;6903;49.480;11.102;2022-07-22T06:03:23;7.97;;;7.38;;
13660;SDS011;6903;49.480;11.102;2022-07-22T06:05:49;8.30;;;6.97;;
13660;SDS011;6903;49.480;11.102;2022-07-22T06:08:14;8.75;;;7.00;;
13660;SDS011;6903;49.480;11.102;2022-07-22T06:10:39;9.90;;;9.00;;
13660;SDS011;6903;49.480;11.102;2022-07-22T06:13:05;7.43;;;6.78;;
13660;SDS011;6903;49.480;11.102;2022-07-22T06:15:30;9.27;;;7.05;;
13660;SDS011;6903;49.480;11.102;2022-07-22T06:17:55;7.35;;;6.55;;
13660;SDS011;6903;49.480;11.102;2022-07-22T06:20:21;8.23;;;6.45;;
13660;SDS011;6903;49.480;11.102;2022-07-22T06:22:46;7.88;;;6.90;;
13660;SDS011;6903;49.480;11.102;2022-07-22T06:25:12;9.10;;;6.95;;
13660;SDS011;6903;49.480;11.102;2022-07-22T06:27:37;6.72;;;6.22;;
13660;SDS011;6903;49.480;11.102;2022-07-22T06:30:03;6.72;;;6.07;;
13660;SDS011;6903;49.480;11.102;2022-07-22T06:32:28;6.70;;;6.20;;
13660;SDS011;6903;49.480;11.102;2022-07-22T06:34:54;6.80;;;6.20;;
13660;SDS011;6903;49.480;11.102;2022-07-22T06:37:19;6.05;;;5.55;;
13660;SDS011;6903;49.480;11.102;2022-07-22T06:39:44;5.93;;;5.03;;
13660;SDS011;6903;49.480;11.102;2022-07-22T06:42:11;6.80;;;6.20;;
13660;SDS011;6903;49.480;11.102;2022-07-22T06:44:37;6.35;;;5.82;;
13660;SDS011;6903;49.480;11.102;2022-07-22T06:47:02;6.38;;;5.88;;
13660;SDS011;6903;49.480;11.102;2022-07-22T06:49:28;6.32;;;5.75;;
13660;SDS011;6903;49.480;11.102;2022-07-22T06:51:53;7.10;;;6.50;;
13660;SDS011;6903;49.480;11.102;2022-07-22T06:54:18;6.80;;;6.20;;
13660;SDS011;6903;49.480;11.102;2022-07-22T06:56:44;7.68;;;6.85;;
13660;SDS011;6903;49.480;11.102;2022-07-22T06:59:09;7.00;;;6.43;;
13660;SDS011;6903;49.480;11.102;2022-07-22T07:01:35;7.18;;;6.57;;
13660;SDS011;6903;49.480;11.102;2022-07-22T07:04:01;7.60;;;6.90;;
13660;SDS011;6903;49.480;11.102;2022-07-22T07:06:27;7.47;;;6.78;;
13660;SDS011;6903;49.480;11.102;2022-07-22T07:08:52;6.25;;;5.75;;
13660;SDS011;6903;49.480;11.102;2022-07-22T07:11:18;7.45;;;6.75;;
13660;SDS011;6903;49.480;11.102;2022-07-22T07:13:43;7.18;;;6.57;;
13660;SDS011;6903;49.480;11.102;2022-07-22T07:16:08;7.05;;;6.35;;
13660;SDS011;6903;49.480;11.102;2022-07-22T07:18:34;7.00;;;6.40;;
13660;SDS011;6903;49.480;11.102;2022-07-22T07:21:00;7.15;;;6.53;;
13660;SDS011;6903;49.480;11.102;2022-07-22T07:23:25;7.18;;;6.53;;
13660;SDS011;6903;49.480;11.102;2022-07-22T07:25:50;6.70;;;6.13;;
13660;SDS011;6903;49.480;11.102;2022-07-22T07:28:16;7.13;;;6.43;;
13660;SDS011;6903;49.480;11.102;2022-07-22T07:30:41;6.78;;;6.28;;
13660;SDS011;6903;49.480;11.102;2022-07-22T07:33:07;7.35;;;6.75;;
13660;SDS011;6903;49.480;11.102;2022-07-22T07:35:32;7.22;;;6.55;;
13660;SDS011;6903;49.480;11.102;2022-07-22T07:37:57;7.38;;;6.35;;
13660;SDS011;6903;49.480;11.102;2022-07-22T07:40:23;7.32;;;6.72;;
13660;SDS011;6903;49.480;11.102;2022-07-22T07:42:48;7.50;;;6.78;;
13660;SDS011;6903;49.480;11.102;2022-07-22T07:45:14;7.25;;;6.55;;
13660;SDS011;6903;49.480;11.102;2022-07-22T07:47:39;6.80;;;6.00;;
13660;SDS011;6903;49.480;11.102;2022-07-22T07:50:05;8.32;;;7.28;;
13660;SDS011;6903;49.480;11.102;2022-07-22T07:52:36;7.68;;;6.90;;
13660;SDS011;6903;49.480;11.102;2022-07-22T07:55:03;7.40;;;6.80;;
13660;SDS011;6903;49.480;11.102;2022-07-22T07:57:29;6.97;;;6.28;;
13660;SDS011;6903;49.480;11.102;2022-07-22T07:59:54;6.72;;;6.18;;
13660;SDS011;6903;49.480;11.102;2022-07-22T08:02:19;8.30;;;6.78;;
13660;SDS011;6903;49.480;11.102;2022-07-22T08:04:44;7.22;;;6.47;;
13660;SDS011;6903;49.480;11.102;2022-07-22T08:07:10;7.32;;;6.75;;
13660;SDS011;6903;49.480;11.102;2022-07-22T08:09:35;7.35;;;5.72;;
13660;SDS011;6903;49.480;11.102;2022-07-22T08:12:02;7.30;;;6.60;;
13660;SDS011;6903;49.480;11.102;2022-07-22T08:14:28;7.15;;;6.55;;
13660;SDS011;6903;49.480;11.102;2022-07-22T08:16:54;7.85;;;6.63;;
13660;SDS011;6903;49.480;11.102;2022-07-22T08:19:19;6.93;;;6.22;;
13660;SDS011;6903;49.480;11.102;2022-07-22T08:21:44;8.05;;;7.25;;
13660;SDS011;6903;49.480;11.102;2022-07-22T08:24:09;7.03;;;6.18;;
13660;SDS011;6903;49.480;11.102;2022-07-22T08:26:35;7.20;;;6.50;;
13660;SDS011;6903;49.480;11.102;2022-07-22T08:29:01;7.70;;;7.00;;
13660;SDS011;6903;49.480;11.102;2022-07-22T08:31:29;8.05;;;7.35;;
13660;SDS011;6903;49.480;11.102;2022-07-22T08:33:57;7.32;;;6.63;;
13660;SDS011;6903;49.480;11.102;2022-07-22T08:36:24;6.22;;;5.63;;
13660;SDS011;6903;49.480;11.102;2022-07-22T08:38:49;6.88;;;6.25;;
13660;SDS011;6903;49.480;11.102;2022-07-22T08:41:14;7.78;;;7.10;;
13660;SDS011;6903;49.480;11.102;2022-07-22T08:43:40;7.82;;;7.00;;
13660;SDS011;6903;49.480;11.102;2022-07-22T08:46:07;6.57;;;6.00;;
13660;SDS011;6903;49.480;11.102;2022-07-22T08:48:32;6.57;;;5.85;;
13660;SDS011;6903;49.480;11.102;2022-07-22T08:51:00;5.90;;;5.40;;
13660;SDS011;6903;49.480;11.102;2022-07-22T08:53:26;7.32;;;6.63;;
13660;SDS011;6903;49.480;11.102;2022-07-22T08:55:51;8.57;;;6.25;;
13660;SDS011;6903;49.480;11.102;2022-07-22T08:58:16;7.03;;;6.43;;
13660;SDS011;6903;49.480;11.102;2022-07-22T09:00:43;6.70;;;6.10;;
13660;SDS011;6903;49.480;11.102;2022-07-22T09:03:18;9.43;;;6.88;;
13660;SDS011;6903;49.480;11.102;2022-07-22T09:05:52;7.70;;;6.22;;
13660;SDS011;6903;49.480;11.102;2022-07-22T09:08:18;6.53;;;5.93;;
13660;SDS011;6903;49.480;11.102;2022-07-22T09:10:44;6.05;;;5.43;;
13660;SDS011;6903;49.480;11.102;2022-07-22T09:13:10;6.40;;;5.80;;
13660;SDS011;6903;49.480;11.102;2022-07-22T09:15:37;5.68;;;5.18;;
13660;SDS011;6903;49.480;11.102;2022-07-22T09:18:10;7.03;;;6.30;;
13660;SDS011;6903;49.480;11.102;2022-07-22T09:20:36;7.40;;;5.68;;
13660;SDS011;6903;49.480;11.102;2022-07-22T09:23:03;6.82;;;6.22;;
13660;SDS011;6903;49.480;11.102;2022-07-22T09:25:35;7.05;;;6.45;;
13660;SDS011;6903;49.480;11.102;2022-07-22T09:30:30;7.43;;;6.75;;
13660;SDS011;6903;49.480;11.102;2022-07-22T09:32:56;7.03;;;6.32;;
13660;SDS011;6903;49.480;11.102;2022-07-22T09:35:22;7.35;;;6.65;;
13660;SDS011;6903;49.480;11.102;2022-07-22T09:42:47;6.20;;;5.70;;
13660;SDS011;6903;49.480;11.102;2022-07-22T09:45:15;6.50;;;5.90;;
13660;SDS011;6903;49.480;11.102;2022-07-22T09:47:41;6.35;;;5.65;;
13660;SDS011;6903;49.480;11.102;2022-07-22T09:50:21;5.88;;;5.47;;
13660;SDS011;6903;49.480;11.102;2022-07-22T09:52:57;7.28;;;6.00;;
13660;SDS011;6903;49.480;11.102;2022-07-22T09:55:24;5.40;;;4.82;;
13660;SDS011;6903;49.480;11.102;2022-07-22T09:57:51;6.53;;;5.55;;
13660;SDS011;6903;49.480;11.102;2022-07-22T10:00:22;7.57;;;6.30;;
13660;SDS011;6903;49.480;11.102;2022-07-22T10:05:22;6.18;;;5.55;;
13660;SDS011;6903;49.480;11.102;2022-07-22T10:07:49;6.40;;;5.75;;
13660;SDS011;6903;49.480;11.102;2022-07-22T10:10:16;5.88;;;5.30;;
13660;SDS011;6903;49.480;11.102;2022-07-22T10:12:45;7.60;;;5.78;;
13660;SDS011;6903;49.480;11.102;2022-07-22T10:15:12;6.78;;;6.18;;
13660;SDS011;6903;49.480;11.102;2022-07-22T10:17:41;6.03;;;5.53;;
13660;SDS011;6903;49.480;11.102;2022-07-22T10:20:08;7.10;;;6.18;;
13660;SDS011;6903;49.480;11.102;2022-07-22T10:25:13;9.80;;;6.55;;
13660;SDS011;6903;49.480;11.102;2022-07-22T10:27:45;7.60;;;6.07;;
13660;SDS011;6903;49.480;11.102;2022-07-22T10:30:26;6.30;;;5.70;;
13660;SDS011;6903;49.480;11.102;2022-07-22T10:35:28;7.53;;;6.72;;
13660;SDS011;6903;49.480;11.102;2022-07-22T10:37:54;7.43;;;6.63;;
13660;SDS011;6903;49.480;11.102;2022-07-22T10:40:24;7.40;;;6.55;;
13660;SDS011;6903;49.480;11.102;2022-07-22T10:45:24;6.47;;;5.85;;
13660;SDS011;6903;49.480;11.102;2022-07-22T10:47:53;7.82;;;6.22;;
13660;SDS011;6903;49.480;11.102;2022-07-22T10:53:04;5.90;;;5.50;;
13660;SDS011;6903;49.480;11.102;2022-07-22T10:55:31;6.70;;;6.10;;
13660;SDS011;6903;49.480;11.102;2022-07-22T10:57:56;6.50;;;6.00;;
13660;SDS011;6903;49.480;11.102;2022-07-22T11:00:22;7.00;;;6.30;;
13660;SDS011;6903;49.480;11.102;2022-07-22T11:02:47;6.60;;;6.00;;
13660;SDS011;6903;49.480;11.102;2022-07-22T11:05:13;7.32;;;6.72;;
13660;SDS011;6903;49.480;11.102;2022-07-22T11:07:42;6.78;;;6.25;;
13660;SDS011;6903;49.480;11.102;2022-07-22T11:10:15;6.78;;;6.07;;
13660;SDS011;6903;49.480;11.102;2022-07-22T11:12:43;6.53;;;5.95;;
13660;SDS011;6903;49.480;11.102;2022-07-22T11:15:08;6.05;;;5.47;;
13660;SDS011;6903;49.480;11.102;2022-07-22T11:17:35;5.82;;;5.28;;
13660;SDS011;6903;49.480;11.102;2022-07-22T11:20:02;8.10;;;6.03;;
13660;SDS011;6903;49.480;11.102;2022-07-22T11:22:29;6.70;;;5.70;;
13660;SDS011;6903;49.480;11.102;2022-07-22T11:24:55;8.70;;;6.15;;
13660;SDS011;6903;49.480;11.102;2022-07-22T11:27:21;6.07;;;5.47;;
13660;SDS011;6903;49.480;11.102;2022-07-22T11:29:51;6.43;;;5.93;;
13660;SDS011;6903;49.480;11.102;2022-07-22T11:32:19;7.68;;;6.22;;
13660;SDS011;6903;49.480;11.102;2022-07-22T11:34:46;11.73;;;6.45;;
13660;SDS011;6903;49.480;11.102;2022-07-22T11:37:13;6.35;;;5.65;;
13660;SDS011;6903;49.480;11.102;2022-07-22T11:39:39;6.15;;;5.50;;
13660;SDS011;6903;49.480;11.102;2022-07-22T11:42:05;5.80;;;5.22;;
13660;SDS011;6903;49.480;11.102;2022-07-22T11:44:31;6.68;;;6.00;;
13660;SDS011;6903;49.480;11.102;2022-07-22T11:47:00;6.40;;;5.60;;
13660;SDS011;6903;49.480;11.102;2022-07-22T11:49:29;6.05;;;5.55;;
13660;SDS011;6903;49.480;11.102;2022-07-22T11:51:56;5.68;;;5.18;;
13660;SDS011;6903;49.480;11.102;2022-07-22T11:54:21;6.63;;;6.05;;
13660;SDS011;6903;49.480;11.102;2022-07-22T11:56:48;6.68;;;6.05;;
13660;SDS011;6903;49.480;11.102;2022-07-22T11:59:14;6.25;;;5.75;;
13660;SDS011;6903;49.480;11.102;2022-07-22T12:01:41;6.72;;;5.40;;
13660;SDS011;6903;49.480;11.102;2022-07-22T12:04:07;6.32;;;5.82;;
13660;SDS011;6903;49.480;11.102;2022-07-22T12:06:35;6.55;;;5.88;;
13660;SDS011;6903;49.480;11.102;2022-07-22T12:09:05;5.88;;;5.38;;
13660;SDS011;6903;49.480;11.102;2022-07-22T12:11:33;6.95;;;6.35;;
13660;SDS011;6903;49.480;11.102;2022-07-22T12:14:06;6.80;;;6.20;;
13660;SDS011;6903;49.480;11.102;2022-07-22T12:16:34;6.97;;;6.28;;
13660;SDS011;6903;49.480;11.102;2022-07-22T12:19:01;7.38;;;6.45;;
13660;SDS011;6903;49.480;11.102;2022-07-22T12:21:31;7.63;;;6.47;;
13660;SDS011;6903;49.480;11.102;2022-07-22T12:24:07;8.45;;;6.50;;
13660;SDS011;6903;49.480;11.102;2022-07-22T12:29:22;6.35;;;5.75;;
13660;SDS011;6903;49.480;11.102;2022-07-22T12:31:51;6.38;;;5.78;;
13660;SDS011;6903;49.480;11.102;2022-07-22T12:34:31;6.43;;;5.07;;
13660;SDS011;6903;49.480;11.102;2022-07-22T12:37:14;7.30;;;5.72;;
13660;SDS011;6903;49.480;11.102;2022-07-22T12:39:52;5.82;;;5.30;;
13660;SDS011;6903;49.480;11.102;2022-07-22T12:42:17;6.70;;;5.70;;
13660;SDS011;6903;49.480;11.102;2022-07-22T12:44:53;6.45;;;5.85;;
13660;SDS011;6903;49.480;11.102;2022-07-22T12:53:18;5.97;;;5.28;;
13660;SDS011;6903;49.480;11.102;2022-07-22T12:58:23;6.30;;;5.80;;
13660;SDS011;6903;49.480;11.102;2022-07-22T13:00:59;6.50;;;5.95;;
13660;SDS011;6903;49.480;11.102;2022-07-22T13:03:25;6.03;;;5.40;;
13660;SDS011;6903;49.480;11.102;2022-07-22T13:05:55;6.28;;;5.68;;
13660;SDS011;6903;49.480;11.102;2022-07-22T13:08:23;5.70;;;5.25;;
13660;SDS011;6903;49.480;11.102;2022-07-22T13:10:49;5.50;;;4.97;;
13660;SDS011;6903;49.480;11.102;2022-07-22T13:13:15;6.47;;;5.88;;
13660;SDS011;6903;49.480;11.102;2022-07-22T13:15:40;5.93;;;5.18;;
13660;SDS011;6903;49.480;11.102;2022-07-22T13:18:06;6.30;;;5.72;;
13660;SDS011;6903;49.480;11.102;2022-07-22T13:20:32;5.10;;;4.60;;
13660;SDS011;6903;49.480;11.102;2022-07-22T13:22:57;6.68;;;6.05;;
13660;SDS011;6903;49.480;11.102;2022-07-22T13:25:22;6.53;;;5.88;;
13660;SDS011;6903;49.480;11.102;2022-07-22T13:27:51;6.25;;;5.65;;
13660;SDS011;6903;49.480;11.102;2022-07-22T13:30:17;7.20;;;6.50;;
13660;SDS011;6903;49.480;11.102;2022-07-22T13:32:43;6.35;;;5.75;;
13660;SDS011;6903;49.480;11.102;2022-07-22T13:35:08;6.53;;;5.97;;
13660;SDS011;6903;49.480;11.102;2022-07-22T13:37:34;6.28;;;5.68;;
13660;SDS011;6903;49.480;11.102;2022-07-22T13:40:00;5.80;;;5.30;;
13660;SDS011;6903;49.480;11.102;2022-07-22T13:42:25;5.88;;;5.43;;
13660;SDS011;6903;49.480;11.102;2022-07-22T13:44:51;6.38;;;5.78;;
13660;SDS011;6903;49.480;11.102;2022-07-22T13:47:16;6.50;;;5.97;;
13660;SDS011;6903;49.480;11.102;2022-07-22T13:49:42;6.70;;;6.10;;
13660;SDS011;6903;49.480;11.102;2022-07-22T13:52:09;7.63;;;5.78;;
13660;SDS011;6903;49.480;11.102;2022-07-22T13:54:34;6.75;;;5.55;;
13660;SDS011;6903;49.480;11.102;2022-07-22T13:57:00;5.68;;;5.18;;
13660;SDS011;6903;49.480;11.102;2022-07-22T13:59:26;6.55;;;5.07;;
13660;SDS011;6903;49.480;11.102;2022-07-22T14:01:52;5.65;;;5.13;;
13660;SDS011;6903;49.480;11.102;2022-07-22T14:04:18;8.70;;;5.20;;
13660;SDS011;6903;49.480;11.102;2022-07-22T14:06:44;10.50;;;6.55;;
13660;SDS011;6903;49.480;11.102;2022-07-22T14:09:09;5.95;;;5.35;;
13660;SDS011;6903;49.480;11.102;2022-07-22T14:11:34;5.63;;;5.13;;
13660;SDS011;6903;49.480;11.102;2022-07-22T14:14:00;6.10;;;5.60;;
13660;SDS011;6903;49.480;11.102;2022-07-22T14:16:25;6.15;;;5.47;;
13660;SDS011;6903;49.480;11.102;2022-07-22T14:19:07;7.70;;;6.45;;
13660;SDS011;6903;49.480;11.102;2022-07-22T14:21:34;5.97;;;5.38;;
13660;SDS011;6903;49.480;11.102;2022-07-22T14:24:01;5.40;;;4.88;;
13660;SDS011;6903;49.480;11.102;2022-07-22T14:26:27;6.85;;;5.63;;
13660;SDS011;6903;49.480;11.102;2022-07-22T14:28:53;6.30;;;5.65;;
13660;SDS011;6903;49.480;11.102;2022-07-22T14:31:19;6.53;;;5.85;;
13660;SDS011;6903;49.480;11.102;2022-07-22T14:33:45;5.70;;;5.20;;
13660;SDS011;6903;49.480;11.102;2022-07-22T14:36:11;5.72;;;5.10;;
13660;SDS011;6903;49.480;11.102;2022-07-22T14:38:36;6.07;;;5.45;;
13660;SDS011;6903;49.480;11.102;2022-07-22T14:41:02;5.70;;;5.20;;
13660;SDS011;6903;49.480;11.102;2022-07-22T14:43:27;8.48;;;5.68;;
13660;SDS011;6903;49.480;11.102;2022-07-22T14:45:53;6.07;;;5.47;;
13660;SDS011;6903;49.480;11.102;2022-07-22T14:48:18;7.63;;;5.50;;
13660;SDS011;6903;49.480;11.102;2022-07-22T14:50:43;6.13;;;5.53;;
13660;SDS011;6903;49.480;11.102;2022-07-22T14:53:09;5.45;;;4.95;;
13660;SDS011;6903;49.480;11.102;2022-07-22T14:55:34;5.80;;;5.28;;
13660;SDS011;6903;49.480;11.102;2022-07-22T14:57:59;6.00;;;5.60;;
13660;SDS011;6903;49.480;11.102;2022-07-22T15:00:25;5.93;;;5.38;;
13660;SDS011;6903;49.480;11.102;2022-07-22T15:02:50;6.85;;;5.65;;
13660;SDS011;6903;49.480;11.102;2022-07-22T15:05:15;9.48;;;5.97;;
13660;SDS011;6903;49.480;11.102;2022-07-22T15:07:41;9.70;;;6.30;;